createdAt,value
2017-05-27T00:02:07.556Z,12.10
2017-05-27T00:04:34.244Z,11.57
2017-05-27T00:07:00.953Z,10.95
2017-05-27T00:09:27.641Z,12.07
2017-05-27T00:11:54.349Z,11.48
2017-05-27T00:14:21.038Z,12.38
2017-05-27T00:16:47.756Z,12.72
2017-05-27T00:19:14.440Z,11.42
2017-05-27T00:21:41.136Z,11.35
2017-05-27T00:24:07.818Z,12.23
2017-05-27T00:26:34.499Z,11.67
2017-05-27T00:29:01.207Z,12.88
2017-05-27T00:31:27.888Z,11.33
2017-05-27T00:33:54.589Z,12.78
2017-05-27T00:36:21.273Z,12.58
2017-05-27T00:38:47.981Z,12.52
2017-05-27T00:41:14.675Z,12.72
2017-05-27T00:43:41.355Z,14.65
2017-05-27T00:46:08.035Z,12.97
2017-05-27T00:48:34.716Z,13.27
2017-05-27T00:51:01.433Z,12.38
2017-05-27T00:53:28.120Z,12.95
2017-05-27T00:55:54.828Z,12.38
2017-05-27T00:58:21.513Z,12.93
2017-05-27T01:00:48.229Z,12.13
2017-05-27T01:03:14.915Z,12.60
2017-05-27T01:05:41.596Z,11.90
2017-05-27T01:08:08.282Z,12.23
2017-05-27T01:10:34.972Z,11.20
2017-05-27T01:13:01.643Z,13.43
2017-05-27T01:15:28.325Z,11.32
2017-05-27T01:17:55.041Z,12.48
2017-05-27T01:20:21.720Z,12.28
2017-05-27T01:22:48.432Z,12.03
2017-05-27T01:25:15.121Z,12.52
2017-05-27T01:27:41.811Z,12.13
2017-05-27T01:30:08.492Z,12.17
2017-05-27T01:32:35.178Z,13.17
2017-05-27T01:35:01.865Z,14.15
2017-05-27T01:37:28.556Z,13.27
2017-05-27T01:39:55.236Z,11.72
2017-05-27T01:42:21.921Z,11.53
2017-05-27T01:44:48.637Z,13.02
2017-05-27T01:47:15.328Z,13.40
2017-05-27T01:49:42.021Z,13.33
2017-05-27T01:52:08.721Z,15.08
2017-05-27T01:54:35.417Z,13.83
2017-05-27T01:57:02.100Z,13.82
2017-05-27T01:59:28.784Z,13.83
2017-05-27T02:01:55.467Z,12.22
2017-05-27T02:04:22.155Z,11.52
2017-05-27T02:06:48.840Z,13.28
2017-05-27T02:09:15.935Z,14.38
2017-05-27T02:11:42.669Z,14.63
2017-05-27T02:14:09.353Z,13.48
2017-05-27T02:16:36.036Z,12.60
2017-05-27T02:19:02.720Z,13.38
2017-05-27T02:21:29.413Z,13.03
2017-05-27T02:23:56.096Z,13.43
2017-05-27T02:26:22.792Z,13.85
2017-05-27T02:28:49.478Z,13.65
2017-05-27T02:31:16.163Z,13.55
2017-05-27T02:33:42.861Z,14.33
2017-05-27T02:36:09.543Z,13.23
2017-05-27T02:38:36.269Z,14.73
2017-05-27T02:41:02.952Z,15.13
2017-05-27T02:43:29.652Z,16.75
2017-05-27T02:45:56.336Z,15.90
2017-05-27T02:48:23.028Z,16.13
2017-05-27T02:50:49.712Z,14.45
2017-05-27T02:53:16.396Z,15.77
2017-05-27T02:55:43.085Z,15.57
2017-05-27T02:58:09.768Z,14.45
2017-05-27T03:00:36.460Z,15.52
2017-05-27T03:03:03.149Z,16.13
2017-05-27T03:05:29.867Z,13.63
2017-05-27T03:07:56.553Z,14.13
2017-05-27T03:10:23.245Z,14.40
2017-05-27T03:12:49.932Z,14.73
2017-05-27T03:15:16.615Z,15.17
2017-05-27T03:17:43.325Z,14.95
2017-05-27T03:20:10.020Z,16.00
2017-05-27T03:22:36.728Z,14.85
2017-05-27T03:25:03.409Z,14.72
2017-05-27T03:27:30.140Z,15.17
2017-05-27T03:29:56.833Z,15.82
2017-05-27T03:32:23.516Z,14.98
2017-05-27T03:34:50.212Z,14.78
2017-05-27T03:37:16.896Z,14.33
2017-05-27T03:39:43.608Z,15.07
2017-05-27T03:42:10.294Z,13.92
2017-05-27T03:44:37.000Z,15.68
2017-05-27T03:47:03.687Z,13.40
2017-05-27T03:49:30.410Z,15.08
2017-05-27T03:51:57.108Z,13.87
2017-05-27T03:54:23.824Z,13.27
2017-05-27T03:56:50.504Z,13.63
2017-05-27T03:59:17.181Z,14.23
2017-05-27T04:01:43.873Z,14.07
2017-05-27T04:04:10.555Z,14.28
2017-05-27T04:06:37.255Z,15.20
2017-05-27T04:09:03.933Z,14.12
2017-05-27T04:11:30.644Z,12.60
2017-05-27T04:13:57.334Z,14.40
2017-05-27T04:16:24.044Z,14.43
2017-05-27T04:18:50.735Z,14.10
2017-05-27T04:21:17.424Z,13.45
2017-05-27T04:23:44.113Z,13.50
2017-05-27T04:26:10.901Z,13.85
2017-05-27T04:28:37.615Z,14.23
2017-05-27T04:31:04.300Z,13.97
2017-05-27T04:33:31.004Z,14.23
2017-05-27T04:35:57.700Z,13.53
2017-05-27T04:38:24.411Z,14.52
2017-05-27T04:40:51.091Z,13.87
2017-05-27T04:43:17.776Z,14.22
2017-05-27T04:45:44.456Z,12.33
2017-05-27T04:48:11.135Z,13.60
2017-05-27T04:50:37.844Z,14.28
2017-05-27T04:53:04.539Z,12.90
2017-05-27T04:55:31.248Z,14.50
2017-05-27T04:57:57.945Z,12.97
2017-05-27T05:00:24.652Z,13.87
2017-05-27T05:02:51.337Z,14.87
2017-05-27T05:05:18.052Z,14.08
2017-05-27T05:07:44.742Z,15.12
2017-05-27T05:10:11.424Z,14.80
2017-05-27T05:12:38.109Z,15.45
2017-05-27T05:15:04.788Z,16.40
2017-05-27T05:17:31.501Z,14.73
2017-05-27T05:19:58.188Z,17.33
2017-05-27T05:22:24.899Z,13.80
2017-05-27T05:24:51.594Z,13.68
2017-05-27T05:27:18.308Z,13.52
2017-05-27T05:29:44.996Z,11.85
2017-05-27T05:32:11.680Z,12.80
2017-05-27T05:34:38.359Z,13.84
2017-05-27T05:37:05.055Z,12.34
2017-05-27T05:39:31.740Z,12.16
2017-05-27T05:41:58.424Z,12.34
2017-05-27T05:44:25.132Z,11.80
2017-05-27T05:46:51.818Z,10.74
2017-05-27T05:49:18.524Z,11.36
2017-05-27T05:51:45.238Z,11.90
2017-05-27T05:54:11.924Z,10.38
2017-05-27T05:56:38.604Z,11.44
2017-05-27T05:59:05.288Z,11.06
2017-05-27T06:04:03.526Z,11.00
2017-05-27T06:06:30.220Z,9.94
2017-05-27T06:08:56.919Z,10.82
2017-05-27T06:11:23.631Z,9.80
2017-05-27T06:13:50.309Z,10.38
2017-05-27T06:16:16.987Z,11.30
2017-05-27T06:18:43.672Z,9.60
2017-05-27T06:21:10.352Z,10.64
2017-05-27T06:23:37.021Z,9.68
2017-05-27T06:26:03.693Z,9.28
2017-05-27T06:28:30.403Z,10.20
2017-05-27T06:30:57.079Z,9.28
2017-05-27T06:33:23.764Z,10.00
2017-05-27T06:35:50.446Z,10.70
2017-05-27T06:38:17.113Z,8.32
2017-05-27T06:40:43.790Z,9.52
2017-05-27T06:43:10.469Z,9.18
2017-05-27T06:45:37.136Z,8.66
2017-05-27T06:48:03.811Z,9.12
2017-05-27T06:50:30.516Z,9.22
2017-05-27T06:52:57.193Z,9.10
2017-05-27T06:55:23.867Z,8.62
2017-05-27T06:57:50.540Z,9.04
2017-05-27T07:00:17.216Z,8.96
2017-05-27T07:02:43.889Z,9.28
2017-05-27T07:05:10.565Z,9.30
2017-05-27T07:07:37.239Z,9.32
2017-05-27T07:10:03.912Z,9.38
2017-05-27T07:12:30.612Z,8.84
2017-05-27T07:14:57.285Z,8.90
2017-05-27T07:17:23.964Z,8.56
2017-05-27T07:19:50.665Z,8.56
2017-05-27T07:22:17.343Z,8.60
2017-05-27T07:24:44.045Z,8.36
2017-05-27T07:27:10.724Z,8.44
2017-05-27T07:29:37.404Z,8.94
2017-05-27T07:32:04.079Z,7.08
2017-05-27T07:34:30.786Z,8.08
2017-05-27T07:36:57.457Z,7.14
2017-05-27T07:39:24.140Z,7.28
2017-05-27T07:41:50.834Z,7.60
2017-05-27T07:44:17.512Z,7.42
2017-05-27T07:46:44.213Z,7.48
2017-05-27T07:49:10.885Z,7.62
2017-05-27T07:51:37.589Z,7.20
2017-05-27T07:54:04.264Z,7.34
2017-05-27T07:56:30.984Z,6.82
2017-05-27T07:58:57.663Z,8.04
2017-05-27T08:01:24.336Z,7.12
2017-05-27T08:03:51.008Z,6.96
2017-05-27T08:06:17.693Z,7.10
2017-05-27T08:08:44.377Z,7.16
2017-05-27T08:11:11.056Z,7.76
2017-05-27T08:13:37.741Z,6.48
2017-05-27T08:16:04.475Z,7.06
2017-05-27T08:18:38.335Z,8.46
2017-05-27T08:21:07.344Z,7.04
2017-05-27T08:23:36.306Z,6.82
2017-05-27T08:26:03.036Z,7.08
2017-05-27T08:28:29.708Z,6.78
2017-05-27T08:30:56.376Z,7.02
2017-05-27T08:33:28.711Z,7.20
2017-05-27T08:35:55.384Z,7.20
2017-05-27T08:38:22.058Z,7.26
2017-05-27T08:40:48.739Z,6.58
2017-05-27T08:43:15.420Z,6.92
2017-05-27T08:45:42.104Z,7.04
2017-05-27T08:48:08.793Z,7.18
2017-05-27T08:50:35.496Z,7.24
2017-05-27T08:53:02.179Z,7.30
2017-05-27T08:55:28.881Z,6.82
2017-05-27T08:57:55.560Z,6.38
2017-05-27T09:00:22.229Z,7.74
2017-05-27T09:02:48.914Z,7.36
2017-05-27T09:05:15.587Z,7.30
2017-05-27T09:07:42.257Z,8.42
2017-05-27T09:10:08.998Z,6.90
2017-05-27T09:12:35.690Z,7.12
2017-05-27T09:15:02.364Z,7.08
2017-05-27T09:17:29.072Z,7.10
2017-05-27T09:19:55.741Z,7.38
2017-05-27T09:22:22.415Z,6.56
2017-05-27T09:24:49.092Z,6.78
2017-05-27T09:27:15.777Z,13.58
2017-05-27T09:29:42.447Z,6.98
2017-05-27T09:32:09.124Z,7.06
2017-05-27T09:34:35.855Z,7.82
2017-05-27T09:37:02.528Z,7.46
2017-05-27T09:39:29.204Z,7.02
2017-05-27T09:41:55.884Z,8.00
2017-05-27T09:44:22.564Z,7.48
2017-05-27T09:46:49.244Z,7.82
2017-05-27T09:49:15.925Z,7.78
2017-05-27T09:51:42.608Z,7.56
2017-05-27T09:54:09.295Z,6.96
2017-05-27T09:56:35.980Z,7.40
2017-05-27T09:59:02.657Z,8.10
2017-05-27T10:01:29.368Z,7.82
2017-05-27T10:03:56.053Z,8.24
2017-05-27T10:06:22.740Z,8.16
2017-05-27T10:08:49.415Z,7.02
2017-05-27T10:11:16.088Z,7.40
2017-05-27T10:13:42.781Z,6.54
2017-05-27T10:16:09.469Z,8.02
2017-05-27T10:18:36.144Z,6.70
2017-05-27T10:21:02.821Z,7.64
2017-05-27T10:23:29.515Z,7.78
2017-05-27T10:25:56.193Z,7.80
2017-05-27T10:28:22.871Z,7.24
2017-05-27T10:30:49.548Z,7.38
2017-05-27T10:33:16.237Z,7.76
2017-05-27T10:35:42.924Z,6.76
2017-05-27T10:38:09.624Z,7.20
2017-05-27T10:40:36.304Z,7.58
2017-05-27T10:43:02.992Z,7.38
2017-05-27T10:45:29.702Z,7.34
2017-05-27T10:47:56.372Z,7.14
2017-05-27T10:50:23.069Z,7.20
2017-05-27T10:52:49.751Z,7.74
2017-05-27T10:55:16.444Z,7.00
2017-05-27T10:57:43.122Z,7.88
2017-05-27T11:00:09.817Z,7.58
2017-05-27T11:02:36.529Z,7.48
2017-05-27T11:05:03.216Z,6.78
2017-05-27T11:07:29.906Z,7.50
2017-05-27T11:09:56.608Z,7.50
2017-05-27T11:12:23.313Z,7.38
2017-05-27T11:14:50.021Z,6.98
2017-05-27T11:17:16.709Z,7.34
2017-05-27T11:19:43.412Z,6.98
2017-05-27T11:22:10.092Z,7.20
2017-05-27T11:24:36.801Z,7.70
2017-05-27T11:27:03.472Z,7.40
2017-05-27T11:29:30.188Z,7.28
2017-05-27T11:31:56.863Z,7.54
2017-05-27T11:34:23.532Z,7.30
2017-05-27T11:36:50.199Z,7.14
2017-05-27T11:39:16.867Z,6.42
2017-05-27T11:41:43.559Z,7.78
2017-05-27T11:44:10.237Z,7.16
2017-05-27T11:46:36.935Z,7.80
2017-05-27T11:49:03.623Z,6.70
2017-05-27T11:51:30.328Z,8.62
2017-05-27T11:53:57.001Z,7.26
2017-05-27T11:56:23.705Z,7.66
2017-05-27T12:11:41.980Z,8.08
2017-05-27T12:16:41.780Z,8.78
2017-05-27T12:19:08.516Z,7.86
2017-05-27T12:21:35.184Z,7.80
2017-05-27T12:24:01.864Z,8.40
2017-05-27T12:26:28.533Z,7.78
2017-05-27T12:28:55.225Z,8.66
2017-05-27T12:31:21.927Z,7.60
2017-05-27T12:33:48.602Z,8.58
2017-05-27T12:36:15.302Z,7.72
2017-05-27T12:38:41.968Z,8.72
2017-05-27T12:41:08.692Z,7.86
2017-05-27T12:43:35.386Z,8.54
2017-05-27T12:46:02.084Z,8.76
2017-05-27T12:48:28.768Z,8.34
2017-05-27T12:50:55.447Z,8.52
2017-05-27T12:53:22.129Z,8.88
2017-05-27T12:55:48.801Z,9.66
2017-05-27T12:58:15.501Z,8.32
2017-05-27T13:00:42.185Z,8.34
2017-05-27T13:03:08.893Z,8.58
2017-05-27T13:05:35.565Z,8.98
2017-05-27T13:08:02.276Z,8.36
2017-05-27T13:10:28.952Z,8.80
2017-05-27T13:12:55.656Z,8.44
2017-05-27T13:15:22.332Z,8.22
2017-05-27T13:17:49.037Z,8.76
2017-05-27T13:20:15.709Z,9.28
2017-05-27T13:22:42.391Z,7.14
2017-05-27T13:25:09.065Z,7.94
2017-05-27T13:27:35.736Z,8.50
2017-05-27T13:30:02.443Z,8.00
2017-05-27T13:32:29.140Z,7.34
2017-05-27T13:34:55.832Z,7.34
2017-05-27T13:37:22.508Z,7.80
2017-05-27T13:39:49.210Z,8.06
2017-05-27T13:42:15.892Z,7.00
2017-05-27T13:44:42.555Z,7.82
2017-05-27T13:47:09.232Z,6.72
2017-05-27T13:49:35.904Z,6.86
2017-05-27T13:52:02.600Z,6.62
2017-05-27T13:54:29.272Z,6.58
2017-05-27T13:56:55.975Z,8.22
2017-05-27T13:59:22.760Z,7.34
2017-05-27T14:01:49.464Z,6.96
2017-05-27T14:04:16.136Z,7.34
2017-05-27T14:06:42.818Z,6.38
2017-05-27T14:09:09.488Z,5.90
2017-05-27T14:11:36.156Z,7.14
2017-05-27T14:14:02.859Z,5.72
2017-05-27T14:16:29.544Z,6.62
2017-05-27T14:18:56.266Z,6.00
2017-05-27T14:21:22.940Z,6.08
2017-05-27T14:23:49.614Z,6.02
2017-05-27T14:26:16.332Z,5.96
2017-05-27T14:28:43.012Z,4.70
2017-05-27T14:31:09.685Z,5.26
2017-05-27T14:33:36.358Z,6.22
2017-05-27T14:36:03.057Z,5.84
2017-05-27T14:38:29.737Z,7.14
2017-05-27T14:40:56.437Z,4.94
2017-05-27T14:43:23.129Z,5.00
2017-05-27T14:45:49.804Z,5.14
2017-05-27T14:48:16.480Z,5.82
2017-05-27T14:50:43.156Z,5.24
2017-05-27T14:53:09.836Z,5.24
2017-05-27T14:55:36.524Z,5.14
2017-05-27T14:58:03.202Z,5.24
2017-05-27T15:00:29.873Z,9.18
2017-05-27T15:02:56.584Z,7.10
2017-05-27T15:05:23.261Z,5.34
2017-05-27T15:07:49.940Z,4.84
2017-05-27T15:10:16.616Z,5.68
2017-05-27T15:12:43.292Z,5.50
2017-05-27T15:15:09.973Z,4.70
2017-05-27T15:17:36.648Z,5.38
2017-05-27T15:20:03.317Z,5.10
2017-05-27T15:22:29.988Z,5.28
2017-05-27T15:24:56.692Z,7.86
2017-05-27T15:27:23.368Z,5.44
2017-05-27T15:29:50.045Z,5.38
2017-05-27T15:32:16.791Z,4.60
2017-05-27T15:34:43.461Z,6.84
2017-05-27T15:37:10.133Z,5.38
2017-05-27T15:39:36.814Z,5.42
2017-05-27T15:42:03.497Z,5.06
2017-05-27T15:44:30.165Z,5.70
2017-05-27T15:46:56.870Z,8.22
2017-05-27T15:49:23.540Z,6.42
2017-05-27T15:51:50.217Z,5.46
2017-05-27T15:54:16.904Z,5.00
2017-05-27T15:56:43.577Z,6.18
2017-05-27T15:59:10.264Z,5.26
2017-05-27T16:01:36.954Z,5.74
2017-05-27T16:04:03.632Z,4.94
2017-05-27T16:06:30.308Z,5.82
2017-05-27T16:08:57.021Z,5.68
2017-05-27T16:11:23.700Z,5.22
2017-05-27T16:13:50.391Z,5.18
2017-05-27T16:16:17.073Z,6.00
2017-05-27T16:18:43.753Z,5.02
2017-05-27T16:21:10.427Z,5.26
2017-05-27T16:23:37.100Z,5.22
2017-05-27T16:26:03.776Z,5.98
2017-05-27T16:28:30.448Z,6.04
2017-05-27T16:30:57.118Z,4.38
2017-05-27T16:33:23.808Z,6.18
2017-05-27T16:35:50.520Z,6.08
2017-05-27T16:38:17.203Z,6.18
2017-05-27T16:40:43.880Z,5.06
2017-05-27T16:43:10.592Z,4.32
2017-05-27T16:45:37.269Z,4.90
2017-05-27T16:48:03.968Z,5.36
2017-05-27T16:50:30.648Z,5.62
2017-05-27T16:52:57.344Z,5.20
2017-05-27T16:55:24.281Z,5.62
2017-05-27T16:57:50.980Z,4.80
2017-05-27T17:00:18.874Z,5.44
2017-05-27T17:02:45.551Z,5.34
2017-05-27T17:05:12.224Z,5.46
2017-05-27T17:07:38.953Z,4.54
2017-05-27T17:10:05.653Z,6.54
2017-05-27T17:12:32.341Z,5.30
2017-05-27T17:14:59.034Z,5.94
2017-05-27T17:17:25.709Z,4.60
2017-05-27T17:19:52.526Z,6.96
2017-05-27T17:22:21.713Z,5.14
2017-05-27T17:24:48.774Z,5.00
2017-05-27T17:27:15.444Z,5.54
2017-05-27T17:29:42.123Z,4.66
2017-05-27T17:32:08.795Z,4.66
2017-05-27T17:34:35.467Z,3.74
2017-05-27T17:37:02.165Z,4.12
2017-05-27T17:39:28.838Z,4.56
2017-05-27T17:41:55.532Z,4.16
2017-05-27T17:44:22.265Z,5.34
2017-05-27T17:46:48.955Z,3.84
2017-05-27T17:49:15.634Z,4.54
2017-05-27T17:51:42.344Z,3.90
2017-05-27T17:54:09.019Z,3.92
2017-05-27T17:56:35.696Z,4.26
2017-05-27T17:59:02.368Z,4.32
2017-05-27T18:01:29.042Z,4.18
2017-05-27T18:03:55.778Z,4.18
2017-05-27T18:06:22.453Z,4.78
2017-05-27T18:08:49.156Z,4.40
2017-05-27T18:11:15.835Z,3.92
2017-05-27T18:13:42.554Z,3.76
2017-05-27T18:16:09.240Z,3.56
2017-05-27T18:18:35.916Z,4.08
2017-05-27T18:21:02.599Z,4.26
2017-05-27T18:23:29.301Z,3.94
2017-05-27T18:25:55.981Z,3.96
2017-05-27T18:28:22.669Z,3.68
2017-05-27T18:30:49.377Z,4.16
2017-05-27T18:33:16.052Z,3.64
2017-05-27T18:35:42.756Z,5.42
2017-05-27T18:38:09.444Z,3.56
2017-05-27T18:40:36.116Z,4.52
2017-05-27T18:43:02.790Z,3.74
2017-05-27T18:45:29.464Z,4.04
2017-05-27T18:47:56.139Z,3.68
2017-05-27T18:50:22.825Z,4.14
2017-05-27T18:52:49.504Z,3.46
2017-05-27T18:55:16.176Z,3.90
2017-05-27T18:57:42.984Z,3.42
2017-05-27T19:00:09.859Z,4.82
2017-05-27T19:02:36.573Z,3.62
2017-05-27T19:05:03.279Z,6.52
2017-05-27T19:07:30.092Z,5.00
2017-05-27T19:09:56.788Z,5.70
2017-05-27T19:12:23.468Z,3.70
2017-05-27T19:14:50.207Z,3.94
2017-05-27T19:17:16.896Z,5.00
2017-05-27T19:19:43.568Z,3.72
2017-05-27T19:22:10.240Z,3.88
2017-05-27T19:24:36.918Z,3.72
2017-05-27T19:27:03.602Z,3.50
2017-05-27T19:29:30.321Z,4.30
2017-05-27T19:31:56.999Z,5.00
2017-05-27T19:34:23.724Z,4.12
2017-05-27T19:36:50.404Z,4.42
2017-05-27T19:39:17.109Z,5.02
2017-05-27T19:41:43.797Z,4.18
2017-05-27T19:44:10.514Z,3.60
2017-05-27T19:46:37.244Z,3.70
2017-05-27T19:49:03.957Z,3.64
2017-05-27T19:51:30.636Z,4.52
2017-05-27T19:53:57.314Z,3.90
2017-05-27T19:56:24.108Z,3.98
2017-05-27T19:58:50.787Z,4.08
2017-05-27T20:01:17.529Z,3.98
2017-05-27T20:03:44.222Z,3.96
2017-05-27T20:06:10.944Z,3.14
2017-05-27T20:08:37.641Z,3.98
2017-05-27T20:11:04.328Z,7.63
2017-05-27T20:13:31.035Z,4.02
2017-05-27T20:15:57.741Z,3.97
2017-05-27T20:18:24.437Z,3.85
2017-05-27T20:20:51.149Z,3.85
2017-05-27T20:23:17.866Z,4.78
2017-05-27T20:25:44.584Z,4.07
2017-05-27T20:28:11.278Z,3.73
2017-05-27T20:30:38.248Z,3.72
2017-05-27T20:33:04.940Z,3.43
2017-05-27T20:35:31.660Z,4.72
2017-05-27T20:37:58.365Z,3.63
2017-05-27T20:40:25.076Z,4.22
2017-05-27T20:42:51.769Z,8.17
2017-05-27T20:45:18.483Z,4.38
2017-05-27T20:47:45.180Z,4.10
2017-05-27T20:50:11.865Z,4.42
2017-05-27T20:52:38.559Z,3.52
2017-05-27T20:55:05.250Z,4.58
2017-05-27T20:57:31.963Z,3.82
2017-05-27T20:59:58.648Z,4.90
2017-05-27T21:02:25.366Z,4.38
2017-05-27T21:04:52.206Z,3.93
2017-05-27T21:07:18.929Z,3.45
2017-05-27T21:09:45.612Z,4.15
2017-05-27T21:12:12.335Z,6.33
2017-05-27T21:14:39.017Z,4.45
2017-05-27T21:17:05.710Z,4.65
2017-05-27T21:19:32.398Z,5.57
2017-05-27T21:21:59.089Z,3.95
2017-05-27T21:24:25.804Z,4.15
2017-05-27T21:26:52.488Z,4.32
2017-05-27T21:29:19.199Z,4.33
2017-05-27T21:31:46.714Z,4.95
2017-05-27T21:34:13.530Z,4.52
2017-05-27T21:36:40.216Z,4.65
2017-05-27T21:39:06.897Z,4.77
2017-05-27T21:41:33.584Z,5.32
2017-05-27T21:44:00.266Z,8.73
2017-05-27T21:46:26.981Z,4.25
2017-05-27T21:48:53.669Z,4.20
2017-05-27T21:51:20.380Z,4.63
2017-05-27T21:53:47.056Z,5.07
2017-05-27T21:56:13.757Z,7.07
2017-05-27T21:58:40.446Z,5.13
2017-05-27T22:01:07.163Z,4.15
2017-05-27T22:03:33.848Z,4.23
2017-05-27T22:06:00.536Z,4.37
2017-05-27T22:08:27.214Z,6.15
2017-05-27T22:10:53.889Z,4.92
2017-05-27T22:13:20.581Z,3.97
2017-05-27T22:15:47.263Z,5.08
2017-05-27T22:18:13.937Z,4.32
2017-05-27T22:20:40.613Z,5.77
2017-05-27T22:23:07.320Z,4.12
2017-05-27T22:25:34.005Z,4.28
2017-05-27T22:28:00.707Z,5.12
2017-05-27T22:30:27.381Z,4.83
2017-05-27T22:32:54.053Z,3.93
2017-05-27T22:35:20.735Z,4.88
2017-05-27T22:37:47.430Z,4.75
2017-05-27T22:40:14.105Z,4.80
2017-05-27T22:42:40.789Z,4.12
2017-05-27T22:45:07.462Z,5.45
2017-05-27T22:47:34.136Z,4.20
2017-05-27T22:50:00.816Z,4.60
2017-05-27T22:52:27.503Z,5.43
2017-05-27T22:54:54.193Z,5.38
2017-05-27T22:57:20.889Z,3.98
2017-05-27T22:59:47.561Z,4.85
2017-05-27T23:02:14.264Z,4.50
2017-05-27T23:04:40.948Z,4.53
2017-05-27T23:07:07.644Z,4.68
2017-05-27T23:09:34.321Z,5.67
2017-05-27T23:12:00.995Z,4.75
2017-05-27T23:14:27.692Z,4.13
2017-05-27T23:16:54.371Z,4.32
2017-05-27T23:19:21.073Z,5.23
2017-05-27T23:21:47.755Z,4.67
2017-05-27T23:24:14.461Z,4.63
2017-05-27T23:26:41.145Z,5.50
2017-05-27T23:29:07.853Z,4.52
2017-05-27T23:31:34.544Z,4.07
2017-05-27T23:34:01.228Z,5.82
2017-05-27T23:36:27.912Z,4.60
2017-05-27T23:38:54.585Z,4.60
2017-05-27T23:41:21.293Z,4.28
2017-05-27T23:43:47.975Z,4.77
2017-05-27T23:46:14.664Z,4.37
2017-05-27T23:48:41.345Z,5.23
2017-05-27T23:51:08.058Z,5.60
2017-05-27T23:53:34.741Z,5.20
2017-05-27T23:56:01.410Z,5.00
2017-05-27T23:58:28.080Z,5.32
